KFKL

Venango Regional Airport

Franklin, Pennsylvania, USA
KFKL 201120Z 2012/2112 14008KT P6SM SCT060 FM201600 16010G20KT P6SM BKN070 FM210000 15012KT P6SM BKN070
Issued Valid From Valid To
Jul-20 @ 11:20 UTC
(3 hours ago)
Jul-20 @ 12:00 UTC
(2 hours ago)
Jul-21 @ 12:00 UTC
(in 22 hours)
Jul-20 @ 12:00 to Jul-20 @ 16:00
KFKL 201120Z 2012/2112 14008KT P6SM SCT060
Wind Visibility Clouds
140° at 8 knots Greater than 6 miles
  • Scattered at 6,000' AGL
From Jul-20 @ 16:00 to Jul-21 @ 00:00
FM201600 16010G20KT P6SM BKN070
Wind Visibility Clouds
160° at 10 knots
 Gusting to 20 knots
Greater than 6 miles
  • Broken at 7,000' AGL
From Jul-21 @ 00:00 to Jul-21 @ 12:00
FM210000 15012KT P6SM BKN070
Wind Visibility Clouds
150° at 12 knots Greater than 6 miles
  • Broken at 7,000' AGL
KFKL 201120Z 2012/2112 14008KT P6SM SCT060 FM201600 16010G20KT P6SM BKN070 FM210000 15012KT P6SM BKN070
Issued Jul-20 @ 11:20 UTC
(3 hours ago)
Valid From Jul-20 @ 12:00 UTC
(2 hours ago)
Valid To Jul-21 @ 12:00 UTC
(in 22 hours)
Jul-20 @ 12:00 - Jul-20 @ 16:00
Wind Visibility
140° at 8 knots Greater than 6 miles
Clouds
  • Scattered at 6,000' AGL
From Jul-20 @ 16:00 - Jul-21 @ 00:00
Wind Visibility
160° at 10 knots
 Gusting to 20 knots
Greater than 6 miles
Clouds
  • Broken at 7,000' AGL
From Jul-21 @ 00:00 - Jul-21 @ 12:00
Wind Visibility
150° at 12 knots Greater than 6 miles
Clouds
  • Broken at 7,000' AGL